Time;durP1;ratioP1;P1;durP2;ratioP2;P2;SDS_P1;SDS_P2;PMS_P1;PMS_P2;Temp;Humidity;BMP_temperature;BMP_pressure;BME280_temperature;BME280_humidity;BME280_pressure;Samples;Min_cycle;Max_cycle;Signal;HPM_P1;HPM_P2
2021/04/04 00:00:34;;;;;;;22.70;17.20;;;2.50;99.90;;;;;;5090425;28;20482;-73
2021/04/04 00:03:01;;;;;;;22.67;17.40;;;2.40;99.90;;;;;;5093557;28;20467;-73
2021/04/04 00:05:28;;;;;;;24.40;16.30;;;2.40;99.90;;;;;;5090708;28;20472;-73
2021/04/04 00:07:54;;;;;;;25.40;17.90;;;2.30;99.90;;;;;;5096327;28;20514;-73
2021/04/04 00:10:21;;;;;;;26.73;16.30;;;2.20;99.90;;;;;;5083548;28;20456;-73
2021/04/04 00:12:47;;;;;;;29.53;18.37;;;2.10;99.90;;;;;;5094322;28;20465;-73
2021/04/04 00:15:17;;;;;;;23.30;18.67;;;2.10;99.90;;;;;;5083974;28;20462;-73
2021/04/04 00:17:44;;;;;;;19.83;16.30;;;2.00;99.90;;;;;;5090715;28;20466;-73
2021/04/04 00:20:12;;;;;;;21.13;17.87;;;1.90;99.90;;;;;;5097340;28;20461;-73
2021/04/04 00:22:40;;;;;;;20.97;16.90;;;1.90;99.90;;;;;;5088696;28;20540;-73
2021/04/04 00:25:09;;;;;;;17.30;15.83;;;1.80;99.90;;;;;;5086699;28;20467;-73
2021/04/04 00:27:36;;;;;;;19.03;17.10;;;1.80;99.90;;;;;;5093434;28;20513;-73
2021/04/04 00:30:05;;;;;;;29.13;17.37;;;1.80;99.90;;;;;;5079757;28;20470;-73
2021/04/04 00:32:32;;;;;;;24.73;16.40;;;1.80;99.90;;;;;;5080338;28;20596;-73
2021/04/04 00:34:58;;;;;;;17.80;16.00;;;1.70;99.90;;;;;;5081837;28;21067;-73
2021/04/04 00:37:24;;;;;;;21.93;17.10;;;1.70;99.90;;;;;;5097939;28;20462;-73
2021/04/04 00:39:51;;;;;;;20.63;18.07;;;1.60;99.90;;;;;;5081060;28;20983;-73
2021/04/04 00:42:18;;;;;;;19.90;16.40;;;1.60;99.90;;;;;;5088849;28;20527;-73
2021/04/04 00:44:45;;;;;;;37.70;18.43;;;1.60;99.90;;;;;;5086219;28;20469;-73
2021/04/04 00:47:12;;;;;;;25.27;18.67;;;1.60;99.90;;;;;;5095138;28;20494;-73
2021/04/04 00:49:38;;;;;;;32.10;18.70;;;1.60;99.90;;;;;;5097341;28;20459;-73
2021/04/04 00:52:05;;;;;;;22.33;17.33;;;1.60;99.90;;;;;;5085965;28;20465;-73
2021/04/04 00:54:32;;;;;;;27.43;18.43;;;1.60;99.90;;;;;;5082224;28;20467;-72
2021/04/04 00:56:59;;;;;;;26.70;17.50;;;1.50;99.90;;;;;;5085604;28;20469;-72
2021/04/04 00:59:26;;;;;;;23.10;18.37;;;1.50;99.90;;;;;;5092061;28;20472;-73
2021/04/04 01:01:53;;;;;;;26.47;18.23;;;1.50;99.90;;;;;;5089564;28;20521;-73
2021/04/04 01:04:19;;;;;;;28.90;19.03;;;1.60;99.90;;;;;;5094144;28;20472;-72
2021/04/04 01:06:46;;;;;;;25.23;17.30;;;1.60;99.90;;;;;;5087432;28;20496;-73
2021/04/04 01:09:12;;;;;;;20.37;17.27;;;1.60;99.90;;;;;;5099721;28;20465;-73
2021/04/04 01:11:49;;;;;;;20.83;18.00;;;1.60;99.90;;;;;;5097318;28;20798;-73
2021/04/04 01:14:30;;;;;;;25.90;18.40;;;1.60;99.90;;;;;;5095981;28;20467;-73
2021/04/04 01:17:01;;;;;;;23.27;18.87;;;1.50;99.90;;;;;;5094632;28;20904;-73
2021/04/04 01:19:46;;;;;;;30.47;19.13;;;1.60;99.90;;;;;;5084663;28;20459;-72
2021/04/04 01:22:30;;;;;;;21.83;17.27;;;1.60;99.90;;;;;;5101854;28;20461;-73
2021/04/04 01:25:05;;;;;;;24.23;17.87;;;1.70;99.90;;;;;;5092921;28;20472;-72
2021/04/04 01:27:44;;;;;;;30.93;19.00;;;1.70;99.90;;;;;;5091557;28;20506;-72
2021/04/04 01:30:12;;;;;;;21.73;16.90;;;1.80;99.90;;;;;;5089962;28;20457;-72
2021/04/04 01:32:40;;;;;;;23.57;17.17;;;1.80;99.90;;;;;;5095482;28;20482;-72
2021/04/04 01:35:09;;;;;;;20.90;16.00;;;1.80;99.90;;;;;;5091857;28;20461;-73
2021/04/04 01:37:37;;;;;;;20.73;18.50;;;1.90;99.90;;;;;;5093310;28;20458;-72
2021/04/04 01:40:07;;;;;;;25.17;17.93;;;1.90;99.90;;;;;;5082080;28;20460;-72
2021/04/04 01:42:36;;;;;;;25.90;18.57;;;2.00;99.90;;;;;;5086828;28;20893;-72
2021/04/04 01:45:06;;;;;;;23.10;16.60;;;2.00;99.90;;;;;;5095492;28;20522;-73
2021/04/04 01:47:33;;;;;;;28.07;18.00;;;1.90;99.90;;;;;;5092463;28;20517;-73
2021/04/04 01:50:01;;;;;;;23.13;17.83;;;1.90;99.90;;;;;;5096874;28;20542;-73
2021/04/04 01:52:28;;;;;;;24.33;17.87;;;1.80;99.90;;;;;;5094702;28;20480;-72
2021/04/04 01:54:56;;;;;;;18.83;16.83;;;1.80;99.90;;;;;;5091346;28;20457;-73
2021/04/04 01:57:23;;;;;;;24.40;16.83;;;1.70;99.90;;;;;;5083594;28;20467;-73
2021/04/04 01:59:52;;;;;;;24.80;17.00;;;1.70;99.90;;;;;;5090993;28;20472;-72
2021/04/04 02:02:20;;;;;;;33.97;18.20;;;1.80;99.90;;;;;;5082691;28;20460;-72
2021/04/04 02:04:47;;;;;;;20.13;16.53;;;1.90;99.90;;;;;;5088870;28;20802;-73
2021/04/04 02:07:15;;;;;;;23.33;17.27;;;2.00;99.90;;;;;;5092106;28;20831;-73
2021/04/04 02:09:43;;;;;;;18.67;16.80;;;2.10;99.90;;;;;;5075514;28;20476;-72
2021/04/04 02:12:11;;;;;;;21.93;17.87;;;2.20;99.90;;;;;;5094632;28;20879;-73
2021/04/04 02:14:39;;;;;;;33.00;17.33;;;2.30;99.90;;;;;;5082960;28;20466;-73
2021/04/04 02:17:06;;;;;;;25.40;18.07;;;2.30;99.90;;;;;;5088991;28;20469;-73
2021/04/04 02:19:34;;;;;;;24.57;18.30;;;2.50;99.90;;;;;;5089499;28;21034;-73
2021/04/04 02:22:02;;;;;;;23.90;16.70;;;2.50;99.90;;;;;;5086595;28;20465;-73
2021/04/04 02:24:29;;;;;;;20.43;18.30;;;2.60;99.90;;;;;;5091978;28;20469;-73
2021/04/04 02:26:56;;;;;;;23.80;17.07;;;2.70;99.90;;;;;;5092675;28;20555;-73
2021/04/04 02:29:23;;;;;;;26.47;18.33;;;2.80;99.90;;;;;;5089260;28;20543;-73
2021/04/04 02:31:54;;;;;;;23.33;17.40;;;2.90;99.90;;;;;;5093484;28;20487;-73
2021/04/04 02:34:23;;;;;;;29.20;18.37;;;2.90;99.90;;;;;;5089371;28;20463;-73
2021/04/04 02:36:52;;;;;;;29.33;18.40;;;3.00;99.90;;;;;;5086628;28;20458;-73
2021/04/04 02:39:23;;;;;;;21.37;16.40;;;3.10;99.90;;;;;;5093859;28;20457;-73
2021/04/04 02:41:50;;;;;;;19.73;16.53;;;3.20;99.90;;;;;;5092277;28;20993;-73
2021/04/04 02:44:17;;;;;;;23.73;17.93;;;3.20;99.90;;;;;;5084829;28;20471;-73
2021/04/04 02:46:51;;;;;;;23.93;17.37;;;3.30;99.90;;;;;;5092182;28;20750;-73
2021/04/04 02:49:20;;;;;;;25.93;18.57;;;3.30;99.90;;;;;;5094675;28;20453;-74
2021/04/04 02:51:51;;;;;;;23.27;18.77;;;3.30;99.90;;;;;;5086701;28;20458;-73
2021/04/04 02:54:23;;;;;;;26.20;16.77;;;3.30;99.90;;;;;;5088201;28;20829;-73
2021/04/04 02:56:50;;;;;;;22.87;17.70;;;3.40;99.90;;;;;;5089621;28;20460;-73
2021/04/04 02:59:21;;;;;;;24.10;18.67;;;3.40;99.90;;;;;;5083599;28;20980;-73
2021/04/04 03:01:48;;;;;;;20.77;17.97;;;3.40;99.90;;;;;;5080674;28;20458;-73
2021/04/04 03:04:15;;;;;;;23.47;19.50;;;3.50;99.90;;;;;;5085536;28;20455;-73
2021/04/04 03:06:45;;;;;;;30.40;18.40;;;3.40;99.90;;;;;;5074278;28;20500;-73
2021/04/04 03:09:13;;;;;;;26.90;19.40;;;3.40;99.90;;;;;;5092222;28;20480;-73
2021/04/04 03:11:42;;;;;;;20.27;18.20;;;3.50;99.90;;;;;;5093797;28;20505;-73
2021/04/04 03:14:10;;;;;;;25.43;17.80;;;3.60;99.90;;;;;;5096319;28;20467;-73
2021/04/04 03:16:38;;;;;;;24.63;17.40;;;3.60;99.90;;;;;;5087060;28;20462;-73
2021/04/04 03:19:05;;;;;;;31.87;18.70;;;3.60;99.90;;;;;;5091009;28;20464;-73
2021/04/04 03:21:34;;;;;;;19.40;17.40;;;3.70;99.90;;;;;;5096277;28;20823;-73
2021/04/04 03:24:01;;;;;;;26.90;17.80;;;3.60;99.90;;;;;;5091367;28;20816;-73
2021/04/04 03:26:29;;;;;;;25.00;18.47;;;3.60;99.90;;;;;;5091284;28;20842;-73
2021/04/04 03:28:57;;;;;;;26.77;18.77;;;3.60;99.90;;;;;;5085018;28;20466;-73
2021/04/04 03:31:24;;;;;;;20.57;18.30;;;3.60;99.90;;;;;;5083828;28;20529;-73
2021/04/04 03:33:51;;;;;;;29.93;18.70;;;3.60;99.90;;;;;;5090783;28;20454;-73
2021/04/04 03:36:21;;;;;;;29.00;17.63;;;3.70;99.90;;;;;;5084601;28;20458;-73
2021/04/04 03:38:51;;;;;;;28.87;19.13;;;3.70;99.90;;;;;;5091933;28;20454;-73
2021/04/04 03:41:18;;;;;;;25.10;17.23;;;3.80;99.90;;;;;;5087232;28;20514;-73
2021/04/04 03:43:48;;;;;;;28.17;18.63;;;3.90;99.90;;;;;;5089529;28;21019;-73
2021/04/04 03:46:19;;;;;;;20.93;18.27;;;3.90;99.90;;;;;;5092930;28;20493;-73
2021/04/04 03:48:47;;;;;;;35.37;18.33;;;3.90;99.90;;;;;;5091163;28;20859;-73
2021/04/04 03:51:14;;;;;;;26.70;18.50;;;3.90;99.90;;;;;;5090804;28;20526;-73
2021/04/04 03:53:44;;;;;;;26.83;17.63;;;4.00;99.90;;;;;;5084619;28;20467;-73
2021/04/04 03:56:14;;;;;;;24.50;17.90;;;4.00;99.90;;;;;;5089226;28;20487;-73
2021/04/04 03:58:42;;;;;;;24.70;18.23;;;3.90;99.90;;;;;;5087072;28;21019;-73
2021/04/04 04:01:11;;;;;;;22.23;18.07;;;3.90;99.90;;;;;;5086267;28;20457;-73
2021/04/04 04:03:40;;;;;;;25.97;17.07;;;3.80;99.90;;;;;;5097204;28;20992;-73
2021/04/04 04:06:08;;;;;;;38.63;19.13;;;3.80;99.90;;;;;;5079027;28;20524;-73
2021/04/04 04:08:38;;;;;;;26.10;19.33;;;3.90;99.90;;;;;;5088260;28;21180;-73
2021/04/04 04:11:05;;;;;;;21.80;18.37;;;4.00;99.90;;;;;;5092679;28;20453;-73
2021/04/04 04:13:35;;;;;;;22.87;19.07;;;4.10;99.90;;;;;;5088651;28;20476;-73
2021/04/04 04:16:02;;;;;;;22.97;17.93;;;4.20;99.90;;;;;;5092973;28;20465;-73
2021/04/04 04:18:30;;;;;;;23.40;17.73;;;4.10;99.90;;;;;;5087704;28;20504;-73
2021/04/04 04:20:58;;;;;;;22.20;18.03;;;4.20;99.90;;;;;;5087114;28;20887;-73
2021/04/04 04:23:24;;;;;;;28.33;17.50;;;4.10;99.90;;;;;;5087453;28;20501;-73
2021/04/04 04:25:53;;;;;;;20.50;18.20;;;4.20;99.90;;;;;;5085062;28;20937;-73
2021/04/04 04:28:20;;;;;;;18.00;16.40;;;4.20;99.90;;;;;;5093804;28;20461;-73
2021/04/04 04:30:48;;;;;;;24.77;18.30;;;4.20;99.90;;;;;;5081491;28;20462;-73
2021/04/04 04:33:18;;;;;;;24.40;19.10;;;4.20;99.90;;;;;;5091906;28;20465;-73
2021/04/04 04:35:47;;;;;;;19.93;17.13;;;4.20;99.90;;;;;;5088200;28;20479;-73
2021/04/04 04:38:15;;;;;;;22.13;17.27;;;4.20;99.90;;;;;;5084773;28;20496;-73
2021/04/04 04:40:43;;;;;;;29.43;18.10;;;4.20;99.90;;;;;;5085302;28;20465;-73
2021/04/04 04:43:14;;;;;;;22.77;18.83;;;4.10;99.90;;;;;;5097714;28;20959;-73
2021/04/04 04:45:41;;;;;;;31.93;19.20;;;4.10;99.90;;;;;;5088421;28;20458;-73
2021/04/04 04:48:09;;;;;;;22.13;17.80;;;4.10;99.90;;;;;;5099710;28;20489;-73
2021/04/04 04:50:36;;;;;;;24.67;18.10;;;4.10;99.90;;;;;;5093962;28;20972;-73
2021/04/04 04:53:03;;;;;;;20.67;17.40;;;4.10;99.90;;;;;;5092051;28;20460;-73
2021/04/04 04:55:33;;;;;;;19.80;17.80;;;4.10;99.90;;;;;;5086458;28;20497;-73
2021/04/04 04:58:00;;;;;;;30.50;19.30;;;4.10;99.90;;;;;;5094157;28;20465;-73
2021/04/04 05:00:28;;;;;;;22.87;18.20;;;4.10;99.90;;;;;;5091883;28;20814;-73
2021/04/04 05:02:54;;;;;;;25.07;17.90;;;4.20;99.90;;;;;;5087950;28;20458;-73
2021/04/04 05:05:21;;;;;;;27.33;17.47;;;4.20;99.90;;;;;;5089424;28;20457;-74
2021/04/04 05:07:49;;;;;;;21.57;17.93;;;4.20;99.90;;;;;;5094199;28;20498;-73
2021/04/04 05:10:16;;;;;;;25.73;17.33;;;4.30;99.90;;;;;;5095283;28;20468;-73
2021/04/04 05:12:52;;;;;;;21.03;17.40;;;4.20;99.90;;;;;;5089803;28;20465;-73
2021/04/04 05:15:20;;;;;;;20.23;16.70;;;4.20;99.90;;;;;;5096111;28;20465;-73
2021/04/04 05:17:48;;;;;;;31.70;16.67;;;4.10;99.90;;;;;;5084197;28;20470;-73
2021/04/04 05:20:17;;;;;;;22.67;16.60;;;4.20;99.90;;;;;;5088341;28;20466;-73
2021/04/04 05:22:45;;;;;;;29.40;18.47;;;4.40;99.90;;;;;;5077528;28;20458;-73
2021/04/04 05:25:11;;;;;;;23.83;17.67;;;4.40;99.90;;;;;;5096454;28;20462;-74
2021/04/04 05:27:38;;;;;;;24.07;17.57;;;4.40;99.90;;;;;;5099132;28;20947;-73
2021/04/04 05:30:10;;;;;;;19.53;16.93;;;4.30;99.90;;;;;;5085437;28;20460;-73
2021/04/04 05:32:43;;;;;;;25.17;19.17;;;4.30;99.90;;;;;;5092629;28;20481;-73
2021/04/04 05:35:13;;;;;;;24.47;19.27;;;4.20;99.90;;;;;;5080815;28;20506;-73
2021/04/04 05:37:43;;;;;;;23.13;17.53;;;4.30;99.90;;;;;;5092082;28;20461;-73
2021/04/04 05:40:16;;;;;;;21.73;16.80;;;4.50;99.90;;;;;;5087855;28;20462;-73
2021/04/04 05:42:53;;;;;;;19.63;17.67;;;4.50;99.90;;;;;;5097407;28;20526;-73
2021/04/04 05:45:29;;;;;;;18.47;16.57;;;4.50;99.90;;;;;;5087260;28;20484;-74
2021/04/04 05:48:07;;;;;;;23.23;17.93;;;4.60;99.90;;;;;;5097338;28;20594;-73
2021/04/04 05:50:46;;;;;;;25.40;17.20;;;4.70;99.90;;;;;;5080510;28;20498;-73
2021/04/04 05:53:22;;;;;;;19.40;17.30;;;4.80;99.90;;;;;;5086665;28;20464;-73
2021/04/04 05:55:57;;;;;;;18.63;16.83;;;4.80;99.90;;;;;;5092661;28;20495;-74
2021/04/04 05:58:30;;;;;;;22.23;16.13;;;4.80;99.90;;;;;;5097371;28;20461;-73
2021/04/04 06:01:01;;;;;;;24.77;15.77;;;4.80;99.90;;;;;;5082681;28;20463;-73
2021/04/04 06:04:02;;;;;;;19.93;15.70;;;4.90;99.90;;;;;;5093456;28;20454;-73
2021/04/04 06:07:02;;;;;;;17.90;15.97;;;4.90;99.90;;;;;;5079841;28;20487;-73
2021/04/04 06:09:42;;;;;;;20.03;15.83;;;4.90;99.90;;;;;;5092962;28;20517;-74
2021/04/04 06:12:19;;;;;;;19.87;16.17;;;5.00;99.90;;;;;;5086988;28;20458;-73
2021/04/04 06:15:05;;;;;;;21.30;15.97;;;4.90;99.90;;;;;;5099741;28;20461;-73
2021/04/04 06:17:38;;;;;;;26.33;17.30;;;4.80;99.90;;;;;;5096300;28;20463;-73
2021/04/04 06:20:13;;;;;;;26.70;16.40;;;5.00;99.90;;;;;;5096547;28;20457;-74
2021/04/04 06:22:49;;;;;;;19.77;15.47;;;5.20;99.90;;;;;;5096376;28;20489;-73
2021/04/04 06:25:27;;;;;;;17.87;16.13;;;5.20;99.90;;;;;;5091674;28;20460;-73
2021/04/04 06:28:03;;;;;;;21.97;19.10;;;5.20;99.90;;;;;;5081753;28;20492;-74
2021/04/04 06:30:49;;;;;;;21.80;16.57;;;5.20;99.90;;;;;;5087879;28;20469;-74
2021/04/04 06:33:23;;;;;;;18.00;16.10;;;5.40;99.90;;;;;;5087970;28;20809;-74
2021/04/04 06:36:12;;;;;;;27.67;15.33;;;5.50;99.90;;;;;;5092110;28;20457;-74
2021/04/04 06:39:04;;;;;;;26.77;16.67;;;5.60;99.90;;;;;;5083031;28;20478;-73
2021/04/04 06:41:45;;;;;;;17.13;15.33;;;5.50;99.90;;;;;;5065016;28;20454;-73
2021/04/04 06:44:23;;;;;;;22.03;14.77;;;5.60;99.90;;;;;;5084096;28;20470;-74
2021/04/04 06:46:58;;;;;;;15.50;13.83;;;5.50;99.90;;;;;;5087495;28;20991;-74
2021/04/04 06:49:39;;;;;;;22.27;16.23;;;5.60;99.90;;;;;;5099820;28;20457;-73
2021/04/04 06:52:22;;;;;;;16.27;14.80;;;5.70;99.90;;;;;;5085822;28;20523;-74
2021/04/04 06:54:59;;;;;;;15.73;14.00;;;5.70;99.90;;;;;;5090357;28;20937;-74
2021/04/04 06:57:57;;;;;;;19.83;15.93;;;5.80;99.90;;;;;;5084685;28;20488;-74
2021/04/04 07:00:28;;;;;;;22.00;16.43;;;5.70;99.90;;;;;;5080222;28;20467;-74
2021/04/04 07:03:06;;;;;;;21.33;15.37;;;5.60;99.90;;;;;;5077877;28;20499;-74
2021/04/04 07:05:40;;;;;;;18.00;14.40;;;5.70;99.90;;;;;;5094610;28;20461;-74
2021/04/04 07:08:42;;;;;;;29.90;15.00;;;5.80;99.90;;;;;;5086420;28;20852;-74
2021/04/04 07:11:33;;;;;;;24.40;16.03;;;5.90;99.90;;;;;;5077676;28;20458;-73
2021/04/04 07:14:30;;;;;;;20.03;14.07;;;5.90;99.90;;;;;;5079484;28;20472;-74
2021/04/04 07:17:22;;;;;;;24.70;15.50;;;5.90;99.90;;;;;;5082779;28;20504;-74
2021/04/04 07:20:29;;;;;;;27.23;14.73;;;5.90;99.90;;;;;;5083462;28;20862;-74
2021/04/04 07:23:27;;;;;;;21.20;13.63;;;6.10;99.90;;;;;;5023601;28;20452;-73
2021/04/04 07:26:01;;;;;;;15.10;13.67;;;6.20;99.90;;;;;;5021702;28;20454;-74
2021/04/04 07:28:49;;;;;;;15.67;14.17;;;6.20;99.90;;;;;;5069716;28;20538;-74
2021/04/04 07:31:17;;;;;;;15.13;13.70;;;6.30;99.90;;;;;;5082103;28;20589;-73
2021/04/04 07:33:53;;;;;;;18.20;13.30;;;6.30;99.90;;;;;;5090114;28;20461;-74
2021/04/04 07:36:27;;;;;;;15.97;13.40;;;6.10;99.90;;;;;;5075909;28;20886;-74
2021/04/04 07:39:02;;;;;;;23.90;14.13;;;6.20;99.90;;;;;;5078890;28;20460;-74
2021/04/04 07:41:36;;;;;;;17.73;14.77;;;6.30;99.90;;;;;;5080611;28;20458;-73
2021/04/04 07:44:13;;;;;;;22.33;15.10;;;6.20;99.90;;;;;;5089958;28;20457;-74
2021/04/04 07:46:50;;;;;;;31.37;14.13;;;6.40;99.90;;;;;;5095570;28;20476;-73
2021/04/04 07:49:33;;;;;;;22.80;16.53;;;6.60;99.90;;;;;;5090720;28;20462;-74
2021/04/04 07:52:04;;;;;;;16.87;15.20;;;6.70;99.90;;;;;;5081804;28;20507;-74
2021/04/04 07:54:41;;;;;;;21.43;14.50;;;6.60;99.90;;;;;;5089254;28;20515;-74
2021/04/04 07:57:17;;;;;;;19.63;13.90;;;6.80;99.90;;;;;;5085389;28;20458;-74
2021/04/04 07:59:47;;;;;;;15.43;13.50;;;6.70;99.90;;;;;;5089020;28;20458;-74
2021/04/04 08:02:20;;;;;;;21.07;12.63;;;6.70;99.90;;;;;;5079375;28;20497;-74
2021/04/04 08:04:50;;;;;;;15.87;13.63;;;6.60;99.90;;;;;;5076342;28;20459;-74
2021/04/04 08:07:21;;;;;;;19.50;14.10;;;6.60;99.90;;;;;;5091957;28;20484;-74
2021/04/04 08:09:56;;;;;;;25.20;14.77;;;6.80;99.90;;;;;;5094977;28;20861;-73
2021/04/04 08:12:34;;;;;;;14.80;13.20;;;6.70;99.90;;;;;;5095277;28;20453;-74
2021/04/04 08:15:06;;;;;;;16.10;13.77;;;6.90;99.90;;;;;;5095470;28;20552;-74
2021/04/04 08:17:36;;;;;;;15.07;13.57;;;6.80;99.90;;;;;;5091037;28;20967;-74
2021/04/04 08:20:07;;;;;;;15.40;13.57;;;6.80;99.90;;;;;;5095753;28;20796;-74
2021/04/04 08:22:38;;;;;;;17.37;13.70;;;6.80;99.90;;;;;;5090385;28;21000;-74
2021/04/04 08:25:10;;;;;;;15.63;14.13;;;6.90;99.90;;;;;;5081148;28;20463;-74
2021/04/04 08:27:39;;;;;;;26.20;14.57;;;6.80;99.90;;;;;;5094688;28;20522;-74
2021/04/04 08:30:11;;;;;;;14.77;13.20;;;6.70;99.90;;;;;;5080580;28;20514;-74
2021/04/04 08:32:46;;;;;;;25.53;15.37;;;6.80;99.90;;;;;;5093227;28;20492;-75
2021/04/04 08:35:16;;;;;;;21.53;13.33;;;6.90;99.90;;;;;;5081559;28;20458;-74
2021/04/04 08:37:47;;;;;;;16.70;13.40;;;6.90;99.90;;;;;;5095900;28;20462;-74
2021/04/04 08:40:15;;;;;;;14.50;13.13;;;7.10;99.90;;;;;;5086500;28;20461;-74
2021/04/04 08:42:43;;;;;;;16.40;13.43;;;7.00;99.90;;;;;;5091364;28;20456;-74
2021/04/04 08:45:15;;;;;;;22.60;13.70;;;6.90;99.90;;;;;;5092079;28;20468;-74
2021/04/04 08:47:44;;;;;;;21.33;13.80;;;7.00;99.90;;;;;;5092464;28;20473;-74
2021/04/04 08:50:13;;;;;;;14.53;13.20;;;7.00;99.90;;;;;;5085244;28;21045;-74
2021/04/04 08:52:45;;;;;;;13.97;12.47;;;6.90;99.90;;;;;;5095433;28;20468;-74
2021/04/04 08:55:19;;;;;;;14.60;13.23;;;6.80;99.90;;;;;;5094185;28;20547;-74
2021/04/04 08:57:48;;;;;;;14.13;12.70;;;7.00;99.90;;;;;;5092456;28;20472;-74
2021/04/04 09:00:16;;;;;;;16.60;13.77;;;7.00;99.90;;;;;;5085145;28;21267;-74
2021/04/04 09:02:46;;;;;;;14.80;13.37;;;7.30;99.90;;;;;;5098941;28;20455;-74
2021/04/04 09:05:15;;;;;;;18.00;13.97;;;7.20;99.90;;;;;;5082866;28;20544;-74
2021/04/04 09:07:42;;;;;;;19.50;13.87;;;7.10;99.90;;;;;;5092713;28;20485;-74
2021/04/04 09:10:11;;;;;;;18.17;13.87;;;7.20;99.90;;;;;;5084354;28;20462;-74
2021/04/04 09:12:42;;;;;;;16.77;14.70;;;7.20;99.90;;;;;;5087410;28;20473;-74
2021/04/04 09:15:10;;;;;;;19.77;14.70;;;7.30;99.90;;;;;;5084859;28;20569;-74
2021/04/04 09:17:38;;;;;;;19.13;13.40;;;7.40;99.90;;;;;;5089742;28;20460;-74
2021/04/04 09:20:08;;;;;;;26.23;15.03;;;7.50;99.90;;;;;;5088524;28;20465;-74
2021/04/04 09:22:37;;;;;;;20.07;13.70;;;7.70;99.90;;;;;;5097065;28;20465;-74
2021/04/04 09:25:08;;;;;;;24.93;12.93;;;7.70;99.90;;;;;;5091293;28;20862;-74
2021/04/04 09:27:38;;;;;;;15.20;13.70;;;7.70;99.90;;;;;;5095915;28;20476;-74
2021/04/04 09:30:22;;;;;;;15.03;13.50;;;7.60;99.90;;;;;;5102056;28;20482;-75
2021/04/04 09:32:51;;;;;;;17.00;13.70;;;7.80;99.90;;;;;;5082748;28;20479;-75
2021/04/04 09:35:20;;;;;;;15.20;14.00;;;7.80;99.90;;;;;;5101916;28;20462;-74
2021/04/04 09:37:47;;;;;;;15.70;13.63;;;8.10;99.90;;;;;;5088455;28;20465;-74
2021/04/04 09:40:16;;;;;;;20.87;13.80;;;8.20;99.90;;;;;;5090620;28;20489;-74
2021/04/04 09:42:43;;;;;;;16.07;14.13;;;7.90;99.90;;;;;;5086817;28;20458;-74
2021/04/04 09:45:14;;;;;;;15.07;13.57;;;7.90;99.90;;;;;;5103979;28;20468;-74
2021/04/04 09:47:43;;;;;;;15.37;13.43;;;8.10;99.90;;;;;;5086785;28;20520;-75
2021/04/04 09:50:24;;;;;;;21.57;14.70;;;8.30;99.90;;;;;;5097953;28;20482;-74
2021/04/04 09:52:53;;;;;;;18.30;16.40;;;8.40;99.90;;;;;;5087868;28;20472;-74
2021/04/04 09:55:21;;;;;;;18.20;13.60;;;8.60;99.90;;;;;;5089433;28;20813;-75
2021/04/04 09:57:51;;;;;;;15.67;13.87;;;8.60;99.90;;;;;;5088517;28;20466;-75
2021/04/04 10:00:22;;;;;;;19.17;14.17;;;8.70;99.90;;;;;;5098994;28;20466;-75
2021/04/04 10:02:51;;;;;;;17.07;14.80;;;8.60;99.90;;;;;;5100322;28;20856;-75
2021/04/04 10:05:29;;;;;;;16.07;14.60;;;8.50;99.90;;;;;;5097642;28;20457;-75
2021/04/04 10:07:55;;;;;;;19.00;14.83;;;8.30;99.90;;;;;;5094615;28;20709;-75
2021/04/04 10:10:32;;;;;;;19.30;16.23;;;8.50;99.90;;;;;;5087874;28;23168;-75
2021/04/04 10:13:00;;;;;;;16.20;14.83;;;8.60;99.90;;;;;;5090333;28;20465;-75
2021/04/04 10:15:27;;;;;;;17.40;14.90;;;8.40;99.90;;;;;;5101014;28;20473;-75
2021/04/04 10:17:56;;;;;;;20.40;15.70;;;8.30;99.90;;;;;;5099435;28;20973;-74
2021/04/04 10:20:34;;;;;;;19.93;16.10;;;8.40;99.90;;;;;;5097079;28;20460;-74
2021/04/04 10:23:02;;;;;;;16.33;14.63;;;8.50;99.90;;;;;;5092991;28;20452;-74
2021/04/04 10:25:28;;;;;;;17.70;16.00;;;8.50;99.90;;;;;;5089708;28;20458;-75
2021/04/04 10:28:05;;;;;;;18.03;16.40;;;8.80;99.90;;;;;;5101444;28;20491;-74
2021/04/04 10:30:34;;;;;;;18.83;16.90;;;9.00;99.90;;;;;;5087880;28;20462;-74
2021/04/04 10:33:20;;;;;;;15.80;14.30;;;9.00;99.90;;;;;;5086363;28;20800;-74
2021/04/04 10:35:47;;;;;;;24.93;22.40;;;9.50;99.90;;;;;;5102124;28;20468;-74
2021/04/04 10:38:18;;;;;;;18.23;15.80;;;9.60;99.90;;;;;;5098470;28;20514;-74
2021/04/04 10:40:51;;;;;;;17.60;15.97;;;9.70;99.90;;;;;;5097223;28;20879;-74
2021/04/04 10:43:20;;;;;;;19.60;17.80;;;10.00;99.90;;;;;;5089491;28;20455;-75
2021/04/04 10:46:05;;;;;;;18.27;16.27;;;9.80;99.90;;;;;;5081514;28;20457;-74
2021/04/04 10:48:33;;;;;;;25.00;22.57;;;9.90;99.90;;;;;;5088943;28;20774;-74
2021/04/04 10:51:01;;;;;;;19.80;15.80;;;10.00;99.90;;;;;;5102895;28;20644;-74
2021/04/04 10:53:29;;;;;;;17.63;15.80;;;9.90;99.90;;;;;;5089148;28;20457;-74
2021/04/04 10:55:57;;;;;;;17.40;16.00;;;10.00;99.90;;;;;;5099313;28;20465;-74
2021/04/04 10:58:27;;;;;;;16.87;15.50;;;9.90;99.90;;;;;;5077854;28;20473;-75
2021/04/04 11:00:56;;;;;;;16.37;15.10;;;9.80;99.90;;;;;;5093676;28;20457;-74
2021/04/04 11:03:23;;;;;;;15.27;13.70;;;9.80;99.90;;;;;;5098742;28;20536;-74
2021/04/04 11:05:52;;;;;;;17.60;16.10;;;9.90;99.90;;;;;;5092176;28;20462;-75
2021/04/04 11:08:19;;;;;;;22.63;20.53;;;9.80;99.90;;;;;;5088716;28;20533;-75
2021/04/04 11:10:47;;;;;;;17.17;15.57;;;9.80;99.90;;;;;;5093226;28;20515;-74
2021/04/04 11:13:14;;;;;;;16.60;15.13;;;9.60;99.90;;;;;;5092612;28;20700;-74
2021/04/04 11:15:43;;;;;;;16.37;14.77;;;9.60;99.90;;;;;;5089625;28;20975;-74
2021/04/04 11:18:15;;;;;;;15.63;14.00;;;9.30;99.90;;;;;;5096609;28;20970;-74
2021/04/04 11:20:45;;;;;;;19.13;17.53;;;9.20;99.90;;;;;;5092368;28;20700;-74
2021/04/04 11:23:17;;;;;;;16.70;15.20;;;8.90;99.90;;;;;;5090387;28;20501;-77
2021/04/04 11:25:45;;;;;;;16.43;14.80;;;8.80;99.90;;;;;;5087456;28;20968;-74
2021/04/04 11:28:16;;;;;;;16.13;14.63;;;8.90;99.90;;;;;;5097548;28;20527;-74
2021/04/04 11:30:44;;;;;;;16.73;15.00;;;9.10;99.90;;;;;;5095084;28;20460;-73
2021/04/04 11:33:30;;;;;;;15.97;14.57;;;9.00;99.90;;;;;;5087592;28;20504;-75
2021/04/04 11:36:00;;;;;;;16.03;14.73;;;8.70;99.90;;;;;;5091218;28;20538;-75
2021/04/04 11:38:28;;;;;;;15.20;13.77;;;9.00;99.90;;;;;;5084467;28;20554;-74
2021/04/04 11:41:20;;;;;;;16.43;14.50;;;9.20;99.90;;;;;;5097598;28;20465;-76
2021/04/04 11:43:48;;;;;;;18.93;14.50;;;9.10;99.90;;;;;;5079940;28;20465;-76
2021/04/04 11:46:44;;;;;;;18.70;14.37;;;9.30;99.90;;;;;;5083131;28;20465;-78
2021/04/04 11:49:32;;;;;;;16.70;15.13;;;9.70;99.90;;;;;;5096106;28;20491;-76
2021/04/04 11:52:01;;;;;;;17.27;15.47;;;9.80;99.90;;;;;;5083752;28;20525;-74
2021/04/04 11:54:49;;;;;;;16.30;14.87;;;10.00;99.90;;;;;;5091010;28;20472;-74
2021/04/04 11:57:18;;;;;;;19.60;14.60;;;10.10;99.90;;;;;;5092419;28;20485;-75
2021/04/04 11:59:45;;;;;;;18.10;16.10;;;10.30;99.90;;;;;;5094214;28;20468;-75
2021/04/04 12:02:13;;;;;;;15.77;14.10;;;10.40;99.90;;;;;;5093079;28;20453;-74
2021/04/04 12:04:46;;;;;;;20.53;15.00;;;10.60;99.90;;;;;;5088989;28;20964;-75
2021/04/04 12:07:16;;;;;;;15.17;13.77;;;10.70;99.90;;;;;;5090144;28;20576;-74
2021/04/04 12:09:43;;;;;;;16.83;15.43;;;10.80;99.90;;;;;;5081846;28;20473;-75
2021/04/04 12:12:11;;;;;;;18.00;15.07;;;10.40;99.90;;;;;;5093808;28;20469;-75
2021/04/04 12:14:48;;;;;;;18.00;14.50;;;10.00;99.90;;;;;;5088784;28;20484;-75
2021/04/04 12:17:15;;;;;;;14.97;13.57;;;10.50;99.90;;;;;;5095286;28;20521;-75
2021/04/04 12:19:44;;;;;;;20.73;15.90;;;10.80;99.90;;;;;;5084223;28;20462;-76
2021/04/04 12:22:12;;;;;;;16.43;14.80;;;10.60;99.90;;;;;;5081589;28;20463;-76
2021/04/04 12:24:43;;;;;;;16.87;15.37;;;10.30;99.90;;;;;;5096318;28;20483;-76
2021/04/04 12:27:12;;;;;;;18.17;16.57;;;10.00;99.90;;;;;;5097639;28;20577;-73
2021/04/04 12:29:40;;;;;;;17.17;15.77;;;10.20;99.90;;;;;;5089352;28;20454;-76
2021/04/04 12:32:08;;;;;;;17.67;16.27;;;10.10;99.90;;;;;;5088465;28;20485;-73
2021/04/04 12:34:42;;;;;;;17.40;15.57;;;10.20;99.90;;;;;;5085492;28;20461;-76
2021/04/04 12:37:10;;;;;;;17.80;16.20;;;10.50;99.90;;;;;;5091282;28;20489;-74
2021/04/04 12:39:38;;;;;;;16.07;14.57;;;10.80;99.90;;;;;;5085274;28;20533;-74
2021/04/04 12:42:10;;;;;;;18.40;16.50;;;10.50;99.90;;;;;;5091842;28;20458;-73
2021/04/04 12:44:38;;;;;;;16.67;15.10;;;10.70;99.90;;;;;;5090810;28;20456;-75
2021/04/04 12:47:06;;;;;;;18.30;15.00;;;10.70;99.90;;;;;;5091603;28;20991;-76
2021/04/04 12:49:33;;;;;;;18.43;15.50;;;10.40;99.90;;;;;;5090787;28;20453;-77
2021/04/04 12:52:00;;;;;;;18.20;15.00;;;10.10;99.90;;;;;;5097028;28;20465;-75
2021/04/04 12:54:26;;;;;;;18.37;16.77;;;9.70;99.90;;;;;;5089349;28;20470;-77
2021/04/04 12:56:53;;;;;;;16.93;15.40;;;10.10;99.90;;;;;;5093607;28;20833;-74